sensor_id;sensor_type;location;lat;lon;timestamp;temperature;humidity
76384;SHT30;65204;48.606;7.598;2023-05-07T00:00:06;18.01;60.29
76384;SHT30;65204;48.606;7.598;2023-05-07T00:00:41;18.00;60.38
76384;SHT30;65204;48.606;7.598;2023-05-07T00:01:12;17.98;60.21
76384;SHT30;65204;48.606;7.598;2023-05-07T00:01:43;18.00;60.22
76384;SHT30;65204;48.606;7.598;2023-05-07T00:02:13;18.00;60.20
76384;SHT30;65204;48.606;7.598;2023-05-07T00:02:45;17.97;60.27
76384;SHT30;65204;48.606;7.598;2023-05-07T00:03:16;17.96;60.33
76384;SHT30;65204;48.606;7.598;2023-05-07T00:03:46;17.97;60.41
76384;SHT30;65204;48.606;7.598;2023-05-07T00:04:16;17.96;60.32
76384;SHT30;65204;48.606;7.598;2023-05-07T00:04:47;17.97;60.30
76384;SHT30;65204;48.606;7.598;2023-05-07T00:05:17;17.97;60.33
76384;SHT30;65204;48.606;7.598;2023-05-07T00:05:48;18.00;60.35
76384;SHT30;65204;48.606;7.598;2023-05-07T00:06:18;17.98;60.23
76384;SHT30;65204;48.606;7.598;2023-05-07T00:06:49;17.96;60.31
76384;SHT30;65204;48.606;7.598;2023-05-07T00:07:19;17.96;60.39
76384;SHT30;65204;48.606;7.598;2023-05-07T00:07:50;17.96;60.56
76384;SHT30;65204;48.606;7.598;2023-05-07T00:08:22;17.91;60.44
76384;SHT30;65204;48.606;7.598;2023-05-07T00:08:52;17.93;60.40
76384;SHT30;65204;48.606;7.598;2023-05-07T00:09:23;17.93;60.45
76384;SHT30;65204;48.606;7.598;2023-05-07T00:09:53;17.94;60.43
76384;SHT30;65204;48.606;7.598;2023-05-07T00:10:23;17.91;60.42
76384;SHT30;65204;48.606;7.598;2023-05-07T00:10:55;17.91;60.37
76384;SHT30;65204;48.606;7.598;2023-05-07T00:11:25;17.89;60.31
76384;SHT30;65204;48.606;7.598;2023-05-07T00:11:56;17.90;60.43
76384;SHT30;65204;48.606;7.598;2023-05-07T00:12:26;17.89;60.31
76384;SHT30;65204;48.606;7.598;2023-05-07T00:12:56;17.89;60.24
76384;SHT30;65204;48.606;7.598;2023-05-07T00:13:27;17.89;60.38
76384;SHT30;65204;48.606;7.598;2023-05-07T00:13:57;17.93;60.42
76384;SHT30;65204;48.606;7.598;2023-05-07T00:14:27;17.90;60.37
76384;SHT30;65204;48.606;7.598;2023-05-07T00:14:58;17.87;60.42
76384;SHT30;65204;48.606;7.598;2023-05-07T00:15:28;17.91;60.29
76384;SHT30;65204;48.606;7.598;2023-05-07T00:15:58;17.91;60.38
76384;SHT30;65204;48.606;7.598;2023-05-07T00:16:29;17.89;60.41
76384;SHT30;65204;48.606;7.598;2023-05-07T00:16:59;17.89;60.36
76384;SHT30;65204;48.606;7.598;2023-05-07T00:17:30;17.89;60.33
76384;SHT30;65204;48.606;7.598;2023-05-07T00:18:00;17.90;60.52
76384;SHT30;65204;48.606;7.598;2023-05-07T00:18:30;17.89;60.42
76384;SHT30;65204;48.606;7.598;2023-05-07T00:19:01;17.87;60.40
76384;SHT30;65204;48.606;7.598;2023-05-07T00:19:31;17.87;60.56
76384;SHT30;65204;48.606;7.598;2023-05-07T00:20:03;17.86;60.78
76384;SHT30;65204;48.606;7.598;2023-05-07T00:20:33;17.87;60.67
76384;SHT30;65204;48.606;7.598;2023-05-07T00:21:04;17.87;60.63
76384;SHT30;65204;48.606;7.598;2023-05-07T00:21:34;17.84;60.73
76384;SHT30;65204;48.606;7.598;2023-05-07T00:22:04;17.81;60.76
76384;SHT30;65204;48.606;7.598;2023-05-07T00:22:35;17.81;60.91
76384;SHT30;65204;48.606;7.598;2023-05-07T00:23:05;17.79;60.89
76384;SHT30;65204;48.606;7.598;2023-05-07T00:23:36;17.83;60.82
76384;SHT30;65204;48.606;7.598;2023-05-07T00:24:06;17.80;60.83
76384;SHT30;65204;48.606;7.598;2023-05-07T00:24:36;17.79;60.93
76384;SHT30;65204;48.606;7.598;2023-05-07T00:25:07;17.81;60.90
76384;SHT30;65204;48.606;7.598;2023-05-07T00:25:37;17.77;60.81
76384;SHT30;65204;48.606;7.598;2023-05-07T00:26:08;17.77;60.93
76384;SHT30;65204;48.606;7.598;2023-05-07T00:26:38;17.81;60.91
76384;SHT30;65204;48.606;7.598;2023-05-07T00:27:08;17.79;60.95
76384;SHT30;65204;48.606;7.598;2023-05-07T00:27:39;17.80;60.81
76384;SHT30;65204;48.606;7.598;2023-05-07T00:28:09;17.81;60.77
76384;SHT30;65204;48.606;7.598;2023-05-07T00:28:40;17.80;60.63
76384;SHT30;65204;48.606;7.598;2023-05-07T00:29:11;17.79;60.82
76384;SHT30;65204;48.606;7.598;2023-05-07T00:29:41;17.81;60.83
76384;SHT30;65204;48.606;7.598;2023-05-07T00:30:12;17.80;60.82
76384;SHT30;65204;48.606;7.598;2023-05-07T00:30:42;17.79;60.65
76384;SHT30;65204;48.606;7.598;2023-05-07T00:31:12;17.81;61.01
76384;SHT30;65204;48.606;7.598;2023-05-07T00:31:42;17.79;60.89
76384;SHT30;65204;48.606;7.598;2023-05-07T00:32:13;17.77;60.79
76384;SHT30;65204;48.606;7.598;2023-05-07T00:32:43;17.76;60.89
76384;SHT30;65204;48.606;7.598;2023-05-07T00:33:15;17.76;60.84
76384;SHT30;65204;48.606;7.598;2023-05-07T00:33:45;17.76;60.78
76384;SHT30;65204;48.606;7.598;2023-05-07T00:34:16;17.76;60.85
76384;SHT30;65204;48.606;7.598;2023-05-07T00:34:47;17.76;60.83
76384;SHT30;65204;48.606;7.598;2023-05-07T00:35:17;17.73;60.83
76384;SHT30;65204;48.606;7.598;2023-05-07T00:35:48;17.76;60.81
76384;SHT30;65204;48.606;7.598;2023-05-07T00:36:18;17.73;60.88
76384;SHT30;65204;48.606;7.598;2023-05-07T00:36:48;17.73;60.91
76384;SHT30;65204;48.606;7.598;2023-05-07T00:37:19;17.74;60.89
76384;SHT30;65204;48.606;7.598;2023-05-07T00:37:49;17.74;60.81
76384;SHT30;65204;48.606;7.598;2023-05-07T00:38:20;17.74;60.79
76384;SHT30;65204;48.606;7.598;2023-05-07T00:38:50;17.74;60.82
76384;SHT30;65204;48.606;7.598;2023-05-07T00:39:20;17.74;60.86
76384;SHT30;65204;48.606;7.598;2023-05-07T00:39:51;17.74;60.98
76384;SHT30;65204;48.606;7.598;2023-05-07T00:40:21;17.73;60.90
76384;SHT30;65204;48.606;7.598;2023-05-07T00:40:51;17.73;60.97
76384;SHT30;65204;48.606;7.598;2023-05-07T00:41:22;17.71;61.01
76384;SHT30;65204;48.606;7.598;2023-05-07T00:41:52;17.71;61.14
76384;SHT30;65204;48.606;7.598;2023-05-07T00:42:23;17.70;61.17
76384;SHT30;65204;48.606;7.598;2023-05-07T00:42:54;17.71;61.12
76384;SHT30;65204;48.606;7.598;2023-05-07T00:43:28;17.69;61.22
76384;SHT30;65204;48.606;7.598;2023-05-07T00:43:58;17.69;61.45
76384;SHT30;65204;48.606;7.598;2023-05-07T00:44:29;17.70;61.33
76384;SHT30;65204;48.606;7.598;2023-05-07T00:44:59;17.67;61.19
76384;SHT30;65204;48.606;7.598;2023-05-07T00:45:30;17.70;61.19
76384;SHT30;65204;48.606;7.598;2023-05-07T00:46:00;17.70;61.07
76384;SHT30;65204;48.606;7.598;2023-05-07T00:46:32;17.71;61.09
76384;SHT30;65204;48.606;7.598;2023-05-07T00:47:04;17.70;61.07
76384;SHT30;65204;48.606;7.598;2023-05-07T00:47:34;17.69;61.12
76384;SHT30;65204;48.606;7.598;2023-05-07T00:48:05;17.71;61.10
76384;SHT30;65204;48.606;7.598;2023-05-07T00:48:35;17.70;61.18
76384;SHT30;65204;48.606;7.598;2023-05-07T00:49:06;17.71;61.13
76384;SHT30;65204;48.606;7.598;2023-05-07T00:49:42;17.69;61.27
76384;SHT30;65204;48.606;7.598;2023-05-07T00:50:12;17.67;61.27
76384;SHT30;65204;48.606;7.598;2023-05-07T00:50:43;17.66;61.28
76384;SHT30;65204;48.606;7.598;2023-05-07T00:51:14;17.66;61.07
76384;SHT30;65204;48.606;7.598;2023-05-07T00:51:45;17.67;61.25
76384;SHT30;65204;48.606;7.598;2023-05-07T00:52:16;17.66;61.27
76384;SHT30;65204;48.606;7.598;2023-05-07T00:52:47;17.67;61.24
76384;SHT30;65204;48.606;7.598;2023-05-07T00:53:18;17.65;61.18
76384;SHT30;65204;48.606;7.598;2023-05-07T00:53:48;17.63;61.12
76384;SHT30;65204;48.606;7.598;2023-05-07T00:54:19;17.66;61.20
76384;SHT30;65204;48.606;7.598;2023-05-07T00:54:49;17.66;61.31
76384;SHT30;65204;48.606;7.598;2023-05-07T00:55:20;17.65;61.27
76384;SHT30;65204;48.606;7.598;2023-05-07T00:55:50;17.66;61.13
76384;SHT30;65204;48.606;7.598;2023-05-07T00:56:21;17.66;61.27
76384;SHT30;65204;48.606;7.598;2023-05-07T00:56:52;17.65;61.20
76384;SHT30;65204;48.606;7.598;2023-05-07T00:57:23;17.67;61.23
76384;SHT30;65204;48.606;7.598;2023-05-07T00:57:54;17.65;61.24
76384;SHT30;65204;48.606;7.598;2023-05-07T00:58:24;17.67;61.17
76384;SHT30;65204;48.606;7.598;2023-05-07T00:58:55;17.66;61.29
76384;SHT30;65204;48.606;7.598;2023-05-07T00:59:26;17.63;61.19
76384;SHT30;65204;48.606;7.598;2023-05-07T00:59:56;17.66;61.31
76384;SHT30;65204;48.606;7.598;2023-05-07T01:00:26;17.65;61.19
76384;SHT30;65204;48.606;7.598;2023-05-07T01:00:57;17.67;61.32
76384;SHT30;65204;48.606;7.598;2023-05-07T01:01:28;17.65;61.24
76384;SHT30;65204;48.606;7.598;2023-05-07T01:01:59;17.65;61.17
76384;SHT30;65204;48.606;7.598;2023-05-07T01:02:29;17.63;61.21
76384;SHT30;65204;48.606;7.598;2023-05-07T01:03:00;17.63;61.21
76384;SHT30;65204;48.606;7.598;2023-05-07T01:03:30;17.63;61.19
76384;SHT30;65204;48.606;7.598;2023-05-07T01:04:00;17.63;61.30
76384;SHT30;65204;48.606;7.598;2023-05-07T01:04:31;17.63;61.36
76384;SHT30;65204;48.606;7.598;2023-05-07T01:05:04;17.62;61.29
76384;SHT30;65204;48.606;7.598;2023-05-07T01:05:35;17.62;61.36
76384;SHT30;65204;48.606;7.598;2023-05-07T01:06:07;17.62;61.28
76384;SHT30;65204;48.606;7.598;2023-05-07T01:06:38;17.63;61.43
76384;SHT30;65204;48.606;7.598;2023-05-07T01:07:09;17.59;61.42
76384;SHT30;65204;48.606;7.598;2023-05-07T01:07:40;17.60;61.39
76384;SHT30;65204;48.606;7.598;2023-05-07T01:08:11;17.62;61.55
76384;SHT30;65204;48.606;7.598;2023-05-07T01:08:42;17.62;61.41
76384;SHT30;65204;48.606;7.598;2023-05-07T01:09:13;17.59;61.47
76384;SHT30;65204;48.606;7.598;2023-05-07T01:09:44;17.59;61.75
76384;SHT30;65204;48.606;7.598;2023-05-07T01:10:14;17.57;61.49
76384;SHT30;65204;48.606;7.598;2023-05-07T01:10:46;17.53;61.57
76384;SHT30;65204;48.606;7.598;2023-05-07T01:11:17;17.53;61.51
76384;SHT30;65204;48.606;7.598;2023-05-07T01:11:50;17.51;61.51
76384;SHT30;65204;48.606;7.598;2023-05-07T01:12:22;17.51;61.56
76384;SHT30;65204;48.606;7.598;2023-05-07T01:12:53;17.53;61.61
76384;SHT30;65204;48.606;7.598;2023-05-07T01:13:24;17.50;61.59
76384;SHT30;65204;48.606;7.598;2023-05-07T01:13:55;17.50;61.65
76384;SHT30;65204;48.606;7.598;2023-05-07T01:14:26;17.51;61.61
76384;SHT30;65204;48.606;7.598;2023-05-07T01:14:57;17.49;61.83
76384;SHT30;65204;48.606;7.598;2023-05-07T01:15:28;17.47;61.76
76384;SHT30;65204;48.606;7.598;2023-05-07T01:15:58;17.46;61.91
76384;SHT30;65204;48.606;7.598;2023-05-07T01:16:29;17.46;61.78
76384;SHT30;65204;48.606;7.598;2023-05-07T01:16:59;17.45;61.80
76384;SHT30;65204;48.606;7.598;2023-05-07T01:17:34;17.45;61.68
76384;SHT30;65204;48.606;7.598;2023-05-07T01:18:05;17.46;61.78
76384;SHT30;65204;48.606;7.598;2023-05-07T01:18:35;17.45;61.79
76384;SHT30;65204;48.606;7.598;2023-05-07T01:19:06;17.42;61.69
76384;SHT30;65204;48.606;7.598;2023-05-07T01:19:38;17.43;61.62
76384;SHT30;65204;48.606;7.598;2023-05-07T01:20:09;17.45;61.67
76384;SHT30;65204;48.606;7.598;2023-05-07T01:20:40;17.42;61.71
76384;SHT30;65204;48.606;7.598;2023-05-07T01:21:11;17.42;61.76
76384;SHT30;65204;48.606;7.598;2023-05-07T01:21:45;17.45;61.70
76384;SHT30;65204;48.606;7.598;2023-05-07T01:22:52;17.45;61.75
76384;SHT30;65204;48.606;7.598;2023-05-07T01:23:23;17.42;61.73
76384;SHT30;65204;48.606;7.598;2023-05-07T01:23:54;17.43;61.74
76384;SHT30;65204;48.606;7.598;2023-05-07T01:24:25;17.40;61.68
76384;SHT30;65204;48.606;7.598;2023-05-07T01:24:55;17.43;61.67
76384;SHT30;65204;48.606;7.598;2023-05-07T01:25:26;17.40;61.79
76384;SHT30;65204;48.606;7.598;2023-05-07T01:25:57;17.43;61.86
76384;SHT30;65204;48.606;7.598;2023-05-07T01:26:27;17.39;61.74
76384;SHT30;65204;48.606;7.598;2023-05-07T01:26:57;17.40;61.81
76384;SHT30;65204;48.606;7.598;2023-05-07T01:27:28;17.40;61.76
76384;SHT30;65204;48.606;7.598;2023-05-07T01:27:58;17.39;61.78
76384;SHT30;65204;48.606;7.598;2023-05-07T01:28:32;17.39;61.90
76384;SHT30;65204;48.606;7.598;2023-05-07T01:29:02;17.39;61.76
76384;SHT30;65204;48.606;7.598;2023-05-07T01:29:32;17.40;61.73
76384;SHT30;65204;48.606;7.598;2023-05-07T01:30:04;17.39;61.69
76384;SHT30;65204;48.606;7.598;2023-05-07T01:30:35;17.39;61.67
76384;SHT30;65204;48.606;7.598;2023-05-07T01:31:08;17.39;61.69
76384;SHT30;65204;48.606;7.598;2023-05-07T01:31:40;17.40;61.86
76384;SHT30;65204;48.606;7.598;2023-05-07T01:32:13;17.38;61.82
76384;SHT30;65204;48.606;7.598;2023-05-07T01:32:56;17.35;61.85
76384;SHT30;65204;48.606;7.598;2023-05-07T01:33:32;17.30;62.00
76384;SHT30;65204;48.606;7.598;2023-05-07T01:34:03;17.30;62.03
76384;SHT30;65204;48.606;7.598;2023-05-07T01:34:36;17.35;61.91
76384;SHT30;65204;48.606;7.598;2023-05-07T01:35:10;17.30;61.94
76384;SHT30;65204;48.606;7.598;2023-05-07T01:35:43;17.29;62.08
76384;SHT30;65204;48.606;7.598;2023-05-07T01:36:17;17.28;62.12
76384;SHT30;65204;48.606;7.598;2023-05-07T01:36:48;17.30;62.28
76384;SHT30;65204;48.606;7.598;2023-05-07T01:37:19;17.29;62.17
76384;SHT30;65204;48.606;7.598;2023-05-07T01:37:51;17.28;62.21
76384;SHT30;65204;48.606;7.598;2023-05-07T01:38:22;17.28;62.35
76384;SHT30;65204;48.606;7.598;2023-05-07T01:38:53;17.26;62.22
76384;SHT30;65204;48.606;7.598;2023-05-07T01:39:28;17.23;62.20
76384;SHT30;65204;48.606;7.598;2023-05-07T01:40:01;17.25;62.22
76384;SHT30;65204;48.606;7.598;2023-05-07T01:40:32;17.25;62.17
76384;SHT30;65204;48.606;7.598;2023-05-07T01:41:04;17.28;62.21
76384;SHT30;65204;48.606;7.598;2023-05-07T01:41:35;17.26;62.16
76384;SHT30;65204;48.606;7.598;2023-05-07T01:42:05;17.26;62.17
76384;SHT30;65204;48.606;7.598;2023-05-07T01:42:36;17.23;62.24
76384;SHT30;65204;48.606;7.598;2023-05-07T01:43:06;17.25;62.17
76384;SHT30;65204;48.606;7.598;2023-05-07T01:43:37;17.22;62.13
76384;SHT30;65204;48.606;7.598;2023-05-07T01:44:08;17.22;62.13
76384;SHT30;65204;48.606;7.598;2023-05-07T01:44:40;17.23;62.29
76384;SHT30;65204;48.606;7.598;2023-05-07T01:45:10;17.26;62.23
76384;SHT30;65204;48.606;7.598;2023-05-07T01:45:41;17.25;62.27
76384;SHT30;65204;48.606;7.598;2023-05-07T01:46:12;17.23;62.24
76384;SHT30;65204;48.606;7.598;2023-05-07T01:46:44;17.22;62.30
76384;SHT30;65204;48.606;7.598;2023-05-07T01:47:16;17.20;62.16
76384;SHT30;65204;48.606;7.598;2023-05-07T01:47:46;17.20;62.22
76384;SHT30;65204;48.606;7.598;2023-05-07T01:48:18;17.20;62.19
76384;SHT30;65204;48.606;7.598;2023-05-07T01:48:49;17.22;62.11
76384;SHT30;65204;48.606;7.598;2023-05-07T01:49:20;17.19;62.17
76384;SHT30;65204;48.606;7.598;2023-05-07T01:49:51;17.20;62.17
76384;SHT30;65204;48.606;7.598;2023-05-07T01:50:21;17.18;62.22
76384;SHT30;65204;48.606;7.598;2023-05-07T01:50:53;17.18;62.24
76384;SHT30;65204;48.606;7.598;2023-05-07T01:51:23;17.18;62.22
76384;SHT30;65204;48.606;7.598;2023-05-07T01:51:54;17.20;62.19
76384;SHT30;65204;48.606;7.598;2023-05-07T01:52:27;17.19;62.23
76384;SHT30;65204;48.606;7.598;2023-05-07T01:52:58;17.20;62.19
76384;SHT30;65204;48.606;7.598;2023-05-07T01:53:28;17.16;62.21
76384;SHT30;65204;48.606;7.598;2023-05-07T01:53:58;17.18;62.33
76384;SHT30;65204;48.606;7.598;2023-05-07T01:54:29;17.18;62.33
76384;SHT30;65204;48.606;7.598;2023-05-07T01:54:59;17.16;62.33
76384;SHT30;65204;48.606;7.598;2023-05-07T01:55:29;17.15;62.38
76384;SHT30;65204;48.606;7.598;2023-05-07T01:56:00;17.15;62.40
76384;SHT30;65204;48.606;7.598;2023-05-07T01:56:31;17.16;62.42
76384;SHT30;65204;48.606;7.598;2023-05-07T01:57:01;17.16;62.35
76384;SHT30;65204;48.606;7.598;2023-05-07T01:57:31;17.16;62.35
76384;SHT30;65204;48.606;7.598;2023-05-07T01:58:02;17.19;62.25
76384;SHT30;65204;48.606;7.598;2023-05-07T01:58:33;17.16;62.31
76384;SHT30;65204;48.606;7.598;2023-05-07T01:59:03;17.16;62.45
76384;SHT30;65204;48.606;7.598;2023-05-07T01:59:33;17.14;62.30
76384;SHT30;65204;48.606;7.598;2023-05-07T02:00:04;17.15;62.37
76384;SHT30;65204;48.606;7.598;2023-05-07T02:00:35;17.15;62.43
76384;SHT30;65204;48.606;7.598;2023-05-07T02:01:05;17.15;62.41
76384;SHT30;65204;48.606;7.598;2023-05-07T02:01:35;17.14;62.55
76384;SHT30;65204;48.606;7.598;2023-05-07T02:02:06;17.14;62.47
76384;SHT30;65204;48.606;7.598;2023-05-07T02:02:36;17.11;62.62
76384;SHT30;65204;48.606;7.598;2023-05-07T02:03:08;17.11;62.51
76384;SHT30;65204;48.606;7.598;2023-05-07T02:03:38;17.11;62.53
76384;SHT30;65204;48.606;7.598;2023-05-07T02:04:08;17.09;62.64
76384;SHT30;65204;48.606;7.598;2023-05-07T02:04:39;17.11;62.61
76384;SHT30;65204;48.606;7.598;2023-05-07T02:05:09;17.09;62.59
76384;SHT30;65204;48.606;7.598;2023-05-07T02:05:40;17.09;62.57
76384;SHT30;65204;48.606;7.598;2023-05-07T02:06:10;17.09;62.58
76384;SHT30;65204;48.606;7.598;2023-05-07T02:06:40;17.09;62.61
76384;SHT30;65204;48.606;7.598;2023-05-07T02:07:11;17.12;62.61
76384;SHT30;65204;48.606;7.598;2023-05-07T02:07:41;17.11;62.60
76384;SHT30;65204;48.606;7.598;2023-05-07T02:08:11;17.11;62.62
76384;SHT30;65204;48.606;7.598;2023-05-07T02:08:42;17.11;62.60
76384;SHT30;65204;48.606;7.598;2023-05-07T02:09:13;17.08;62.54
76384;SHT30;65204;48.606;7.598;2023-05-07T02:09:44;17.06;62.63
76384;SHT30;65204;48.606;7.598;2023-05-07T02:10:15;17.08;62.51
76384;SHT30;65204;48.606;7.598;2023-05-07T02:10:45;17.08;62.54
76384;SHT30;65204;48.606;7.598;2023-05-07T02:11:16;17.09;62.52
76384;SHT30;65204;48.606;7.598;2023-05-07T02:11:46;17.08;62.52
76384;SHT30;65204;48.606;7.598;2023-05-07T02:12:16;17.11;62.50
76384;SHT30;65204;48.606;7.598;2023-05-07T02:12:47;17.09;62.61
76384;SHT30;65204;48.606;7.598;2023-05-07T02:13:17;17.08;62.62
76384;SHT30;65204;48.606;7.598;2023-05-07T02:13:47;17.09;62.59
76384;SHT30;65204;48.606;7.598;2023-05-07T02:14:18;17.06;62.57
76384;SHT30;65204;48.606;7.598;2023-05-07T02:14:50;17.06;62.67
76384;SHT30;65204;48.606;7.598;2023-05-07T02:15:20;17.06;62.73
76384;SHT30;65204;48.606;7.598;2023-05-07T02:15:50;17.04;62.67
76384;SHT30;65204;48.606;7.598;2023-05-07T02:16:21;17.05;62.71
76384;SHT30;65204;48.606;7.598;2023-05-07T02:16:53;17.05;62.74
76384;SHT30;65204;48.606;7.598;2023-05-07T02:17:23;17.06;62.70
76384;SHT30;65204;48.606;7.598;2023-05-07T02:18:02;17.04;62.73
76384;SHT30;65204;48.606;7.598;2023-05-07T02:18:32;17.05;62.68
76384;SHT30;65204;48.606;7.598;2023-05-07T02:19:03;17.08;62.76
76384;SHT30;65204;48.606;7.598;2023-05-07T02:19:33;17.04;62.60
76384;SHT30;65204;48.606;7.598;2023-05-07T02:20:04;17.02;62.82
76384;SHT30;65204;48.606;7.598;2023-05-07T02:20:35;17.02;62.76
76384;SHT30;65204;48.606;7.598;2023-05-07T02:21:05;17.04;62.86
76384;SHT30;65204;48.606;7.598;2023-05-07T02:21:35;17.02;62.88
76384;SHT30;65204;48.606;7.598;2023-05-07T02:22:07;17.02;62.87
76384;SHT30;65204;48.606;7.598;2023-05-07T02:22:37;17.02;62.83
76384;SHT30;65204;48.606;7.598;2023-05-07T02:23:07;17.04;62.81
76384;SHT30;65204;48.606;7.598;2023-05-07T02:23:38;17.02;62.92
76384;SHT30;65204;48.606;7.598;2023-05-07T02:24:08;17.01;63.03
76384;SHT30;65204;48.606;7.598;2023-05-07T02:24:38;17.04;62.91
76384;SHT30;65204;48.606;7.598;2023-05-07T02:25:09;17.01;62.98
76384;SHT30;65204;48.606;7.598;2023-05-07T02:25:39;16.99;62.79
76384;SHT30;65204;48.606;7.598;2023-05-07T02:26:10;17.04;62.73
76384;SHT30;65204;48.606;7.598;2023-05-07T02:26:41;17.04;62.72
76384;SHT30;65204;48.606;7.598;2023-05-07T02:27:11;17.04;62.74
76384;SHT30;65204;48.606;7.598;2023-05-07T02:27:41;17.05;62.67
76384;SHT30;65204;48.606;7.598;2023-05-07T02:28:12;17.05;62.62
76384;SHT30;65204;48.606;7.598;2023-05-07T02:28:42;17.05;62.58
76384;SHT30;65204;48.606;7.598;2023-05-07T02:29:13;17.04;62.60
76384;SHT30;65204;48.606;7.598;2023-05-07T02:29:43;17.04;62.69
76384;SHT30;65204;48.606;7.598;2023-05-07T02:30:14;17.04;62.61
76384;SHT30;65204;48.606;7.598;2023-05-07T02:30:44;17.04;62.60
76384;SHT30;65204;48.606;7.598;2023-05-07T02:31:15;17.04;62.54
76384;SHT30;65204;48.606;7.598;2023-05-07T02:31:45;17.06;62.50
76384;SHT30;65204;48.606;7.598;2023-05-07T02:32:15;17.04;62.45
76384;SHT30;65204;48.606;7.598;2023-05-07T02:32:46;17.08;62.47
76384;SHT30;65204;48.606;7.598;2023-05-07T02:33:16;17.05;62.49
76384;SHT30;65204;48.606;7.598;2023-05-07T02:33:46;17.05;62.50
76384;SHT30;65204;48.606;7.598;2023-05-07T02:34:17;17.04;62.69
76384;SHT30;65204;48.606;7.598;2023-05-07T02:34:50;17.04;62.70
76384;SHT30;65204;48.606;7.598;2023-05-07T02:35:20;17.04;62.69
76384;SHT30;65204;48.606;7.598;2023-05-07T02:35:50;17.04;62.62
76384;SHT30;65204;48.606;7.598;2023-05-07T02:36:22;17.06;62.63
76384;SHT30;65204;48.606;7.598;2023-05-07T02:36:52;17.04;62.58
76384;SHT30;65204;48.606;7.598;2023-05-07T02:37:22;17.05;62.58
76384;SHT30;65204;48.606;7.598;2023-05-07T02:37:52;17.04;62.57
76384;SHT30;65204;48.606;7.598;2023-05-07T02:38:23;17.02;62.61
76384;SHT30;65204;48.606;7.598;2023-05-07T02:38:53;17.05;62.53
76384;SHT30;65204;48.606;7.598;2023-05-07T02:39:23;17.05;62.47
76384;SHT30;65204;48.606;7.598;2023-05-07T02:39:54;17.08;62.56
76384;SHT30;65204;48.606;7.598;2023-05-07T02:40:24;17.08;62.50
76384;SHT30;65204;48.606;7.598;2023-05-07T02:40:55;17.08;62.42
76384;SHT30;65204;48.606;7.598;2023-05-07T02:41:25;17.09;62.53
76384;SHT30;65204;48.606;7.598;2023-05-07T02:41:55;17.09;62.48
76384;SHT30;65204;48.606;7.598;2023-05-07T02:42:26;17.12;62.50
76384;SHT30;65204;48.606;7.598;2023-05-07T02:42:56;17.11;62.44
76384;SHT30;65204;48.606;7.598;2023-05-07T02:43:26;17.12;62.54
76384;SHT30;65204;48.606;7.598;2023-05-07T02:43:57;17.14;62.47
76384;SHT30;65204;48.606;7.598;2023-05-07T02:44:27;17.12;62.42
76384;SHT30;65204;48.606;7.598;2023-05-07T02:45:01;17.12;62.32
76384;SHT30;65204;48.606;7.598;2023-05-07T02:45:32;17.11;62.34
76384;SHT30;65204;48.606;7.598;2023-05-07T02:46:07;17.11;62.25
76384;SHT30;65204;48.606;7.598;2023-05-07T02:46:38;17.12;62.23
76384;SHT30;65204;48.606;7.598;2023-05-07T02:47:08;17.11;62.28
76384;SHT30;65204;48.606;7.598;2023-05-07T02:47:40;17.12;62.34
76384;SHT30;65204;48.606;7.598;2023-05-07T02:48:10;17.11;62.35
76384;SHT30;65204;48.606;7.598;2023-05-07T02:48:41;17.09;62.34
76384;SHT30;65204;48.606;7.598;2023-05-07T02:49:11;17.09;62.35
76384;SHT30;65204;48.606;7.598;2023-05-07T02:49:41;17.09;62.36
76384;SHT30;65204;48.606;7.598;2023-05-07T02:50:11;17.09;62.40
76384;SHT30;65204;48.606;7.598;2023-05-07T02:50:42;17.09;62.36
76384;SHT30;65204;48.606;7.598;2023-05-07T02:51:12;17.09;62.30
76384;SHT30;65204;48.606;7.598;2023-05-07T02:51:42;17.06;62.33
76384;SHT30;65204;48.606;7.598;2023-05-07T02:52:13;17.09;62.26
76384;SHT30;65204;48.606;7.598;2023-05-07T02:52:43;17.06;62.28
76384;SHT30;65204;48.606;7.598;2023-05-07T02:53:13;17.09;62.24
76384;SHT30;65204;48.606;7.598;2023-05-07T02:53:44;17.08;62.25
76384;SHT30;65204;48.606;7.598;2023-05-07T02:54:14;17.08;62.31
76384;SHT30;65204;48.606;7.598;2023-05-07T02:54:45;17.09;62.44
76384;SHT30;65204;48.606;7.598;2023-05-07T02:55:15;17.09;62.39
76384;SHT30;65204;48.606;7.598;2023-05-07T02:55:46;17.09;62.39
76384;SHT30;65204;48.606;7.598;2023-05-07T02:56:16;17.09;62.42
76384;SHT30;65204;48.606;7.598;2023-05-07T02:56:46;17.11;62.46
76384;SHT30;65204;48.606;7.598;2023-05-07T02:57:17;17.06;62.43
76384;SHT30;65204;48.606;7.598;2023-05-07T02:57:47;17.06;62.41
76384;SHT30;65204;48.606;7.598;2023-05-07T02:58:17;17.08;62.55
76384;SHT30;65204;48.606;7.598;2023-05-07T02:58:48;17.06;62.54
76384;SHT30;65204;48.606;7.598;2023-05-07T02:59:18;17.09;62.56
76384;SHT30;65204;48.606;7.598;2023-05-07T02:59:48;17.09;62.62
76384;SHT30;65204;48.606;7.598;2023-05-07T03:00:19;17.08;62.66
76384;SHT30;65204;48.606;7.598;2023-05-07T03:00:50;17.08;62.68
76384;SHT30;65204;48.606;7.598;2023-05-07T03:01:20;17.08;62.67
76384;SHT30;65204;48.606;7.598;2023-05-07T03:01:50;17.06;62.61
76384;SHT30;65204;48.606;7.598;2023-05-07T03:02:21;17.08;62.67
76384;SHT30;65204;48.606;7.598;2023-05-07T03:02:51;17.08;62.65
76384;SHT30;65204;48.606;7.598;2023-05-07T03:03:21;17.06;62.71
76384;SHT30;65204;48.606;7.598;2023-05-07T03:03:52;17.06;62.74
76384;SHT30;65204;48.606;7.598;2023-05-07T03:04:22;17.05;62.81
76384;SHT30;65204;48.606;7.598;2023-05-07T03:04:52;17.04;62.78
76384;SHT30;65204;48.606;7.598;2023-05-07T03:05:22;17.06;62.77
76384;SHT30;65204;48.606;7.598;2023-05-07T03:05:53;17.06;62.86
76384;SHT30;65204;48.606;7.598;2023-05-07T03:06:23;17.05;62.70
76384;SHT30;65204;48.606;7.598;2023-05-07T03:06:53;17.05;62.89
76384;SHT30;65204;48.606;7.598;2023-05-07T03:07:24;17.01;62.92
76384;SHT30;65204;48.606;7.598;2023-05-07T03:07:55;17.04;62.88
76384;SHT30;65204;48.606;7.598;2023-05-07T03:08:25;17.01;62.87
76384;SHT30;65204;48.606;7.598;2023-05-07T03:08:56;17.04;62.83
76384;SHT30;65204;48.606;7.598;2023-05-07T03:09:26;17.02;62.90
76384;SHT30;65204;48.606;7.598;2023-05-07T03:09:56;17.02;62.84
76384;SHT30;65204;48.606;7.598;2023-05-07T03:10:26;17.02;62.83
76384;SHT30;65204;48.606;7.598;2023-05-07T03:10:57;17.04;62.81
76384;SHT30;65204;48.606;7.598;2023-05-07T03:11:27;17.02;62.90
76384;SHT30;65204;48.606;7.598;2023-05-07T03:11:57;17.04;62.74
76384;SHT30;65204;48.606;7.598;2023-05-07T03:12:28;17.06;62.82
76384;SHT30;65204;48.606;7.598;2023-05-07T03:12:58;17.04;62.71
76384;SHT30;65204;48.606;7.598;2023-05-07T03:13:29;17.06;62.73
76384;SHT30;65204;48.606;7.598;2023-05-07T03:13:59;17.04;62.81
76384;SHT30;65204;48.606;7.598;2023-05-07T03:14:30;17.05;62.80
76384;SHT30;65204;48.606;7.598;2023-05-07T03:15:01;17.02;62.68